Time;durP1;ratioP1;P1;durP2;ratioP2;P2;SDS_P1;SDS_P2;PMS_P1;PMS_P2;Temp;Humidity;BMP_temperature;BMP_pressure;BME280_temperature;BME280_humidity;BME280_pressure;Samples;Min_cycle;Max_cycle;Signal;HPM_P1;HPM_P2
2021/08/24 00:00:27;;;;;;;1.23;1.17;;;16.70;99.90;;;;;;6273950;22;20177;-59
2021/08/24 00:02:54;;;;;;;2.17;1.20;;;16.70;99.90;;;;;;6273339;22;20154;-57
2021/08/24 00:05:26;;;;;;;1.17;1.17;;;16.60;99.90;;;;;;6273534;22;20546;-60
2021/08/24 00:07:53;;;;;;;2.67;1.30;;;16.60;99.90;;;;;;6274259;22;20130;-60
2021/08/24 00:10:20;;;;;;;2.40;1.10;;;16.60;99.90;;;;;;6274215;22;20158;-60
2021/08/24 00:12:46;;;;;;;2.53;1.17;;;16.70;99.90;;;;;;6274378;22;20462;-59
2021/08/24 00:15:12;;;;;;;1.30;1.20;;;16.70;99.90;;;;;;6273662;22;20173;-60
2021/08/24 00:17:38;;;;;;;3.50;1.00;;;16.60;99.90;;;;;;6274477;22;20473;-59
2021/08/24 00:20:04;;;;;;;1.13;1.03;;;16.60;99.90;;;;;;6273507;22;20209;-59
2021/08/24 00:22:29;;;;;;;3.03;1.30;;;16.60;99.90;;;;;;6274226;22;20229;-60
2021/08/24 00:24:55;;;;;;;3.07;1.07;;;16.60;99.90;;;;;;6274009;22;20524;-57
2021/08/24 00:27:20;;;;;;;2.00;1.30;;;16.60;99.90;;;;;;6273788;22;20173;-58
2021/08/24 00:29:46;;;;;;;1.60;0.90;;;16.70;99.90;;;;;;6273741;22;20146;-59
2021/08/24 00:32:11;;;;;;;2.23;1.10;;;16.70;99.90;;;;;;6246729;22;20161;-59
2021/08/24 00:34:37;;;;;;;1.10;1.10;;;16.60;99.90;;;;;;6273835;22;20154;-58
2021/08/24 00:37:03;;;;;;;1.80;0.93;;;16.30;99.90;;;;;;6273885;22;20616;-60
2021/08/24 00:39:28;;;;;;;1.43;1.10;;;16.30;99.90;;;;;;6273347;22;20254;-60
2021/08/24 00:41:54;;;;;;;1.30;1.20;;;16.30;99.90;;;;;;6273992;22;20149;-62
2021/08/24 00:44:19;;;;;;;1.33;1.03;;;16.50;99.90;;;;;;6273743;22;20592;-61
2021/08/24 00:46:49;;;;;;;1.33;1.10;;;16.60;99.90;;;;;;6273694;22;20173;-60
2021/08/24 00:49:17;;;;;;;3.30;1.03;;;16.50;99.90;;;;;;6273689;22;20169;-59
2021/08/24 00:51:45;;;;;;;1.43;1.03;;;16.60;99.90;;;;;;6273512;22;20157;-57
2021/08/24 00:54:14;;;;;;;0.97;0.90;;;16.70;99.90;;;;;;6273568;22;20631;-59
2021/08/24 00:56:44;;;;;;;2.03;1.23;;;16.60;99.90;;;;;;6273855;22;20181;-59
2021/08/24 00:59:09;;;;;;;1.80;1.20;;;16.50;99.90;;;;;;6273446;22;20166;-60
2021/08/24 01:01:35;;;;;;;3.60;1.00;;;16.50;99.90;;;;;;6273046;22;20229;-61
2021/08/24 01:04:01;;;;;;;2.97;1.40;;;16.70;99.90;;;;;;6273927;22;20173;-62
2021/08/24 01:06:55;;;;;;;3.33;1.33;;;17.30;99.90;;;;;;6273492;22;20170;-62
2021/08/24 01:09:35;;;;;;;0.93;0.93;;;16.70;99.90;;;;;;6269713;22;20158;-60
2021/08/24 01:12:31;;;;;;;1.23;1.17;;;16.60;99.90;;;;;;6273085;22;20134;-60
2021/08/24 01:15:16;;;;;;;3.50;1.07;;;16.50;99.90;;;;;;6273591;22;20145;-60
2021/08/24 01:18:06;;;;;;;1.87;1.30;;;16.60;99.90;;;;;;6272814;22;20169;-58
2021/08/24 01:20:51;;;;;;;1.50;1.10;;;16.70;99.90;;;;;;6273386;22;20185;-57
2021/08/24 01:23:36;;;;;;;1.07;1.07;;;16.60;99.90;;;;;;6210650;22;20245;-59
2021/08/24 01:26:08;;;;;;;1.10;1.10;;;16.60;99.90;;;;;;6270627;22;20173;-59
2021/08/24 01:28:51;;;;;;;0.80;0.80;;;16.70;99.90;;;;;;6272093;22;20158;-59
2021/08/24 01:31:36;;;;;;;1.53;1.20;;;16.50;99.90;;;;;;6273504;22;20146;-59
2021/08/24 01:34:38;;;;;;;1.20;1.10;;;16.30;99.90;;;;;;6273072;22;20139;-59
2021/08/24 01:37:19;;;;;;;3.07;1.20;;;16.30;99.90;;;;;;6273460;22;20169;-59
2021/08/24 01:39:54;;;;;;;1.37;1.27;;;16.30;99.90;;;;;;6273031;22;20169;-58
2021/08/24 01:42:27;;;;;;;1.33;1.20;;;16.30;99.90;;;;;;6273719;22;20508;-57
2021/08/24 01:44:56;;;;;;;1.77;1.40;;;16.30;99.90;;;;;;6273261;22;20220;-59
2021/08/24 01:47:44;;;;;;;1.50;1.40;;;16.30;99.90;;;;;;6273366;22;20142;-57
2021/08/24 01:50:37;;;;;;;2.33;1.47;;;16.30;99.90;;;;;;6273042;22;20138;-57
2021/08/24 01:53:15;;;;;;;2.20;1.70;;;16.20;99.90;;;;;;6246405;22;20481;-59
2021/08/24 01:55:51;;;;;;;1.37;1.30;;;16.00;99.90;;;;;;6273644;22;20177;-59
2021/08/24 01:58:26;;;;;;;1.70;1.60;;;15.90;99.90;;;;;;6273315;22;20180;-58
2021/08/24 02:00:56;;;;;;;1.60;1.50;;;15.80;99.90;;;;;;6273200;22;20195;-56
2021/08/24 02:03:35;;;;;;;1.60;1.50;;;15.70;99.90;;;;;;6273695;22;20146;-59
2021/08/24 02:06:26;;;;;;;1.70;1.60;;;15.80;99.90;;;;;;6273215;22;20634;-58
2021/08/24 02:08:56;;;;;;;3.07;1.57;;;16.00;99.90;;;;;;6273037;22;20195;-57
2021/08/24 02:11:26;;;;;;;2.60;1.53;;;15.90;99.90;;;;;;6273186;22;20153;-54
2021/08/24 02:13:53;;;;;;;3.07;1.97;;;15.80;99.90;;;;;;6273451;22;20211;-58
2021/08/24 02:16:23;;;;;;;1.90;1.57;;;15.80;99.90;;;;;;6272917;22;20182;-58
2021/08/24 02:18:53;;;;;;;2.20;1.70;;;15.80;99.90;;;;;;6272872;22;20158;-57
2021/08/24 02:21:26;;;;;;;2.03;1.87;;;15.80;99.90;;;;;;6273267;22;20171;-56
2021/08/24 02:23:55;;;;;;;1.80;1.70;;;15.80;99.90;;;;;;6275019;22;20138;-58
2021/08/24 02:26:24;;;;;;;3.13;2.10;;;15.70;99.90;;;;;;6275498;22;20255;-59
2021/08/24 02:28:53;;;;;;;2.30;1.40;;;15.60;99.90;;;;;;6274933;22;20750;-57
2021/08/24 02:31:29;;;;;;;1.80;1.57;;;15.60;99.90;;;;;;6275150;22;20540;-58
2021/08/24 02:34:11;;;;;;;2.77;1.43;;;15.50;99.90;;;;;;6275528;22;20157;-59
2021/08/24 02:36:41;;;;;;;1.70;1.60;;;15.40;99.90;;;;;;6274937;22;20211;-56
2021/08/24 02:39:13;;;;;;;1.77;1.53;;;15.40;99.90;;;;;;6274890;22;20170;-58
2021/08/24 02:41:47;;;;;;;2.37;1.57;;;15.30;99.90;;;;;;6275060;22;20184;-55
2021/08/24 02:44:18;;;;;;;1.97;1.70;;;15.30;99.90;;;;;;6275545;22;20137;-51
2021/08/24 02:46:50;;;;;;;2.00;1.90;;;15.30;99.90;;;;;;6274908;22;20655;-56
2021/08/24 02:49:29;;;;;;;1.50;1.40;;;15.30;99.90;;;;;;6274840;22;20225;-59
2021/08/24 02:51:57;;;;;;;2.27;1.63;;;15.20;99.90;;;;;;6275413;22;20461;-59
2021/08/24 02:54:29;;;;;;;2.00;1.40;;;15.30;99.90;;;;;;6275362;22;20292;-59
2021/08/24 02:56:56;;;;;;;2.03;1.40;;;15.30;99.90;;;;;;6275045;22;20611;-58
2021/08/24 02:59:23;;;;;;;1.93;1.30;;;15.30;99.90;;;;;;6274608;22;20255;-56
2021/08/24 03:01:49;;;;;;;1.40;1.30;;;15.30;99.90;;;;;;6275264;22;20177;-58
2021/08/24 03:04:15;;;;;;;1.63;1.40;;;15.30;99.90;;;;;;6275018;22;20143;-59
2021/08/24 03:06:45;;;;;;;1.77;1.57;;;15.30;99.90;;;;;;6274963;22;20173;-58
2021/08/24 03:09:13;;;;;;;1.67;1.40;;;15.30;99.90;;;;;;6274675;22;20176;-56
2021/08/24 03:11:56;;;;;;;1.83;1.10;;;15.30;99.90;;;;;;6274924;22;20170;-58
2021/08/24 03:14:28;;;;;;;2.17;1.40;;;15.30;99.90;;;;;;6275069;22;20145;-59
2021/08/24 03:17:12;;;;;;;2.57;1.37;;;15.30;99.90;;;;;;6274740;22;20557;-57
2021/08/24 03:19:39;;;;;;;2.63;1.40;;;15.30;99.90;;;;;;6274604;22;20500;-59
2021/08/24 03:22:06;;;;;;;2.20;1.20;;;15.30;99.90;;;;;;6275168;22;20485;-54
2021/08/24 03:24:34;;;;;;;2.20;1.13;;;15.30;99.90;;;;;;6275244;22;20177;-58
2021/08/24 03:27:00;;;;;;;1.77;1.50;;;15.30;99.90;;;;;;6274919;22;20162;-56
2021/08/24 03:29:25;;;;;;;2.00;1.10;;;15.30;99.90;;;;;;6274350;22;20146;-56
2021/08/24 03:31:54;;;;;;;1.20;1.10;;;15.20;99.90;;;;;;6274874;22;20596;-58
2021/08/24 03:34:20;;;;;;;3.70;1.50;;;15.20;99.90;;;;;;6274443;22;20156;-59
2021/08/24 03:36:46;;;;;;;2.80;1.47;;;15.20;99.90;;;;;;6274725;22;20651;-59
2021/08/24 03:39:11;;;;;;;2.77;1.40;;;15.20;99.90;;;;;;6274651;22;20248;-58
2021/08/24 03:41:37;;;;;;;1.40;1.30;;;15.10;99.90;;;;;;6274687;22;20221;-60
2021/08/24 03:44:03;;;;;;;2.80;1.50;;;15.10;99.90;;;;;;6274647;22;20603;-57
2021/08/24 03:46:28;;;;;;;2.00;1.60;;;15.10;99.90;;;;;;6275029;22;20645;-59
2021/08/24 03:48:54;;;;;;;1.30;1.20;;;15.10;99.90;;;;;;6274365;22;20778;-59
2021/08/24 03:51:19;;;;;;;2.60;1.23;;;15.00;99.90;;;;;;6274975;22;20153;-58
2021/08/24 03:53:45;;;;;;;1.57;1.47;;;15.00;99.90;;;;;;6274978;22;20249;-59
2021/08/24 03:56:11;;;;;;;1.73;1.30;;;15.00;99.90;;;;;;6274617;22;20616;-59
2021/08/24 03:58:37;;;;;;;3.23;1.80;;;15.00;99.90;;;;;;6274608;22;20589;-57
2021/08/24 04:01:03;;;;;;;1.33;1.23;;;14.90;99.90;;;;;;6275058;22;20157;-59
2021/08/24 04:03:28;;;;;;;1.17;1.10;;;14.90;99.90;;;;;;6274831;22;20220;-58
2021/08/24 04:06:02;;;;;;;1.43;1.27;;;14.90;99.90;;;;;;6275012;22;20197;-58
2021/08/24 04:08:28;;;;;;;1.33;1.23;;;14.90;99.90;;;;;;6274584;22;20146;-59
2021/08/24 04:10:54;;;;;;;1.33;1.30;;;14.90;99.90;;;;;;6274445;22;20154;-58
2021/08/24 04:13:19;;;;;;;1.50;1.40;;;14.90;99.90;;;;;;6274707;22;20150;-57
2021/08/24 04:15:45;;;;;;;1.53;1.40;;;14.80;99.90;;;;;;6274278;22;20182;-56
2021/08/24 04:18:11;;;;;;;1.10;1.10;;;14.80;99.90;;;;;;6274559;22;20160;-58
2021/08/24 04:20:39;;;;;;;2.67;1.37;;;14.90;99.90;;;;;;6248330;22;20223;-57
2021/08/24 04:23:04;;;;;;;2.00;1.17;;;14.90;99.90;;;;;;6274653;22;20142;-59
2021/08/24 04:25:30;;;;;;;2.00;1.50;;;14.90;99.90;;;;;;6274391;22;20166;-58
2021/08/24 04:27:55;;;;;;;1.30;1.20;;;14.80;99.90;;;;;;6274465;22;20146;-57
2021/08/24 04:30:21;;;;;;;4.47;1.40;;;14.90;99.90;;;;;;6274224;22;20592;-59
2021/08/24 04:32:47;;;;;;;1.63;1.30;;;14.80;99.90;;;;;;6274796;22;20150;-59
2021/08/24 04:35:14;;;;;;;1.40;1.30;;;14.90;99.90;;;;;;6274323;22;20182;-58
2021/08/24 04:37:40;;;;;;;1.27;1.17;;;14.80;99.90;;;;;;6274405;22;20525;-55
2021/08/24 04:40:07;;;;;;;1.87;1.30;;;14.70;99.90;;;;;;6274009;22;20205;-60
2021/08/24 04:42:32;;;;;;;1.57;1.47;;;14.70;99.90;;;;;;6274200;22;20142;-53
2021/08/24 04:44:58;;;;;;;1.37;1.20;;;14.70;99.90;;;;;;6274181;22;20195;-59
2021/08/24 04:47:24;;;;;;;1.50;1.40;;;14.70;99.90;;;;;;6274076;22;20150;-58
2021/08/24 04:49:50;;;;;;;1.50;1.40;;;14.70;99.90;;;;;;6273949;22;20486;-57
2021/08/24 04:52:17;;;;;;;1.67;1.37;;;14.80;99.90;;;;;;6274269;22;20146;-58
2021/08/24 04:54:43;;;;;;;1.50;1.40;;;14.80;99.90;;;;;;6274297;22;20229;-54
2021/08/24 04:57:09;;;;;;;2.20;1.40;;;14.80;99.90;;;;;;6274153;22;20693;-59
2021/08/24 04:59:34;;;;;;;1.77;1.67;;;14.80;99.90;;;;;;6273606;22;20609;-59
2021/08/24 05:02:00;;;;;;;1.80;1.70;;;14.80;99.90;;;;;;6274221;22;20225;-57
2021/08/24 05:04:25;;;;;;;1.60;1.50;;;14.80;99.90;;;;;;6274162;22;20521;-59
2021/08/24 05:06:52;;;;;;;5.57;1.90;;;14.80;99.90;;;;;;6274292;22;20200;-58
2021/08/24 05:09:18;;;;;;;1.83;1.67;;;14.70;99.90;;;;;;6273777;22;20146;-56
2021/08/24 05:11:44;;;;;;;2.53;1.60;;;15.20;99.90;;;;;;6274100;22;20150;-56
2021/08/24 05:14:09;;;;;;;2.73;1.87;;;14.60;99.90;;;;;;6273955;22;20180;-53
2021/08/24 05:16:36;;;;;;;2.33;1.90;;;14.80;99.90;;;;;;6273611;22;20185;-53
2021/08/24 05:19:02;;;;;;;1.57;1.47;;;14.60;99.90;;;;;;6273526;22;20193;-56
2021/08/24 05:21:27;;;;;;;2.00;1.80;;;14.50;99.90;;;;;;6274029;22;20142;-55
2021/08/24 05:23:53;;;;;;;3.30;2.00;;;14.60;99.90;;;;;;6273716;22;20455;-55
2021/08/24 05:26:20;;;;;;;2.10;1.90;;;14.60;99.90;;;;;;6273940;22;20169;-59
2021/08/24 05:28:46;;;;;;;2.37;1.90;;;14.70;99.90;;;;;;6273451;22;20154;-57
2021/08/24 05:31:12;;;;;;;2.20;1.87;;;14.70;99.90;;;;;;6274019;22;20153;-58
2021/08/24 05:33:38;;;;;;;2.10;1.90;;;14.70;99.90;;;;;;6273746;22;20219;-55
2021/08/24 05:36:04;;;;;;;2.33;2.13;;;15.60;99.90;;;;;;6273535;22;20610;-52
2021/08/24 05:38:32;;;;;;;2.03;1.90;;;14.70;99.90;;;;;;6273341;22;20150;-55
2021/08/24 05:40:58;;;;;;;3.33;2.00;;;14.60;99.90;;;;;;6273372;22;20178;-53
2021/08/24 05:43:26;;;;;;;2.90;2.00;;;14.60;99.90;;;;;;6273663;22;20147;-56
2021/08/24 05:46:13;;;;;;;2.50;1.90;;;14.70;99.90;;;;;;6270474;22;20186;-56
2021/08/24 05:48:39;;;;;;;2.57;1.80;;;15.60;99.90;;;;;;6272582;22;20208;-50
2021/08/24 05:51:16;;;;;;;2.77;2.00;;;14.60;99.90;;;;;;6273513;22;20625;-53
2021/08/24 05:53:42;;;;;;;1.87;1.77;;;14.60;99.90;;;;;;6273354;22;20569;-54
2021/08/24 05:56:09;;;;;;;2.17;1.90;;;14.70;99.90;;;;;;6273166;22;20180;-56
2021/08/24 05:58:35;;;;;;;1.80;1.70;;;14.80;99.90;;;;;;6273085;22;20229;-59
2021/08/24 06:01:01;;;;;;;2.73;1.80;;;14.80;99.90;;;;;;6246011;22;20204;-55
2021/08/24 06:03:26;;;;;;;1.90;1.80;;;14.70;99.90;;;;;;6272424;22;20533;-56
2021/08/24 06:05:52;;;;;;;2.30;2.03;;;14.60;99.90;;;;;;6272820;22;20246;-57
2021/08/24 06:08:17;;;;;;;2.97;1.80;;;14.50;99.90;;;;;;6273278;22;20302;-59
2021/08/24 06:10:43;;;;;;;3.83;1.90;;;14.70;99.90;;;;;;6273014;22;20598;-52
2021/08/24 06:13:08;;;;;;;1.97;1.80;;;14.70;99.90;;;;;;6270933;22;20485;-57
2021/08/24 06:15:34;;;;;;;3.10;1.80;;;14.70;99.90;;;;;;6272460;22;20177;-60
2021/08/24 06:18:00;;;;;;;1.80;1.67;;;14.70;99.90;;;;;;6272860;22;20211;-57
2021/08/24 06:20:26;;;;;;;2.20;2.00;;;14.70;99.90;;;;;;6272585;22;20600;-58
2021/08/24 06:22:52;;;;;;;2.47;1.90;;;14.70;99.90;;;;;;6273189;22;20195;-58
2021/08/24 06:25:18;;;;;;;4.00;1.90;;;14.60;99.90;;;;;;6273220;22;20510;-54
2021/08/24 06:27:44;;;;;;;2.20;2.00;;;14.60;99.90;;;;;;6272801;22;20536;-56
2021/08/24 06:30:11;;;;;;;2.10;1.90;;;14.70;99.90;;;;;;6272487;22;20184;-58
2021/08/24 06:32:42;;;;;;;2.37;2.03;;;14.70;99.90;;;;;;6273160;22;20260;-55
2021/08/24 06:35:08;;;;;;;2.20;2.00;;;14.80;99.90;;;;;;6270549;22;20658;-56
2021/08/24 06:37:34;;;;;;;2.20;2.10;;;14.90;99.90;;;;;;6273228;22;20158;-59
2021/08/24 06:40:00;;;;;;;2.10;1.90;;;14.80;99.90;;;;;;6272845;22;20173;-57
2021/08/24 06:42:26;;;;;;;2.47;1.97;;;15.00;99.90;;;;;;6272959;22;20149;-57
2021/08/24 06:44:51;;;;;;;2.10;1.90;;;15.00;99.90;;;;;;6273180;22;20146;-59
2021/08/24 06:47:17;;;;;;;2.47;2.20;;;15.00;99.90;;;;;;6273275;22;20178;-57
2021/08/24 06:49:42;;;;;;;2.77;2.10;;;15.00;99.90;;;;;;6272743;22;20489;-59
2021/08/24 06:52:08;;;;;;;1.93;1.73;;;14.90;99.90;;;;;;6272987;22;20593;-56
2021/08/24 06:54:34;;;;;;;4.07;1.90;;;15.00;99.90;;;;;;6272946;22;20150;-54
2021/08/24 06:57:04;;;;;;;1.80;1.70;;;15.00;99.90;;;;;;6273311;22;20189;-51
2021/08/24 06:59:35;;;;;;;1.80;1.70;;;15.00;99.90;;;;;;6272943;22;20493;-56
2021/08/24 07:02:00;;;;;;;2.73;2.20;;;15.10;99.90;;;;;;6273093;22;20184;-54
2021/08/24 07:04:26;;;;;;;2.20;2.00;;;15.20;99.90;;;;;;6273425;22;20601;-50
2021/08/24 07:06:51;;;;;;;1.83;1.73;;;15.30;99.90;;;;;;6273115;22;20162;-57
2021/08/24 07:09:17;;;;;;;3.37;1.97;;;15.50;99.90;;;;;;6273337;22;20215;-51
2021/08/24 07:11:43;;;;;;;2.70;1.90;;;15.70;99.90;;;;;;6274883;22;20169;-57
2021/08/24 07:14:10;;;;;;;2.43;2.10;;;15.80;99.90;;;;;;6275274;22;20150;-53
2021/08/24 07:16:41;;;;;;;3.17;2.20;;;15.80;99.90;;;;;;6274786;22;20532;-54
2021/08/24 07:19:07;;;;;;;2.63;1.90;;;15.80;99.90;;;;;;6274736;22;20185;-55
2021/08/24 07:21:32;;;;;;;3.13;1.97;;;15.80;99.90;;;;;;6274823;22;20142;-56
2021/08/24 07:23:59;;;;;;;2.30;2.10;;;15.80;99.90;;;;;;6275282;22;20658;-59
2021/08/24 07:26:25;;;;;;;2.53;2.20;;;15.80;99.90;;;;;;6274810;22;20647;-51
2021/08/24 07:28:50;;;;;;;2.83;2.27;;;15.90;99.90;;;;;;6274748;22;20150;-53
2021/08/24 07:31:16;;;;;;;4.03;2.20;;;15.80;99.90;;;;;;6274728;22;20660;-53
2021/08/24 07:33:42;;;;;;;2.43;2.23;;;15.80;99.90;;;;;;6274786;22;20146;-50
2021/08/24 07:36:07;;;;;;;2.23;2.03;;;15.80;99.90;;;;;;6274606;22;20170;-55
2021/08/24 07:38:33;;;;;;;2.83;1.90;;;15.80;99.90;;;;;;6274399;22;20604;-58
2021/08/24 07:40:58;;;;;;;2.97;2.30;;;15.80;99.90;;;;;;6274844;22;20178;-51
2021/08/24 07:43:24;;;;;;;2.83;2.10;;;15.80;99.90;;;;;;6274598;22;20239;-60
2021/08/24 07:45:50;;;;;;;2.40;2.17;;;15.90;99.90;;;;;;6274603;22;20181;-61
2021/08/24 07:48:16;;;;;;;3.33;2.10;;;15.90;99.90;;;;;;6274594;22;20174;-59
2021/08/24 07:50:43;;;;;;;2.80;2.20;;;16.00;99.90;;;;;;6274634;22;20532;-61
2021/08/24 07:53:09;;;;;;;2.43;2.10;;;16.10;99.90;;;;;;6274382;22;20154;-61
2021/08/24 07:55:35;;;;;;;2.37;2.17;;;16.20;99.90;;;;;;6274968;22;20170;-60
2021/08/24 07:58:01;;;;;;;2.40;2.20;;;16.10;99.90;;;;;;6274763;22;20151;-61
2021/08/24 08:00:27;;;;;;;2.50;1.83;;;16.10;99.90;;;;;;6274302;22;20177;-60
2021/08/24 08:02:52;;;;;;;2.47;2.27;;;16.10;99.90;;;;;;6274517;22;20601;-61
2021/08/24 08:05:18;;;;;;;3.07;2.20;;;16.30;99.90;;;;;;6274549;22;20492;-61
2021/08/24 08:07:44;;;;;;;1.93;1.83;;;16.30;99.90;;;;;;6274529;22;20203;-61
2021/08/24 08:10:10;;;;;;;3.00;2.03;;;16.40;99.90;;;;;;6274147;22;20154;-61
2021/08/24 08:12:36;;;;;;;2.10;1.90;;;16.60;99.90;;;;;;6274885;22;20174;-55
2021/08/24 08:15:05;;;;;;;1.97;1.87;;;16.80;99.90;;;;;;6274309;22;20204;-59
2021/08/24 08:17:31;;;;;;;2.20;2.00;;;16.90;99.90;;;;;;6274610;22;20164;-57
2021/08/24 08:19:56;;;;;;;1.90;1.80;;;17.00;99.90;;;;;;6273851;22;20625;-57
2021/08/24 08:22:22;;;;;;;3.83;1.70;;;17.20;99.90;;;;;;6274493;22;20157;-59
2021/08/24 08:24:48;;;;;;;2.40;2.20;;;17.30;99.90;;;;;;6274386;22;20585;-58
2021/08/24 08:27:14;;;;;;;2.17;1.97;;;17.40;99.90;;;;;;6274342;22;20189;-56
2021/08/24 08:29:39;;;;;;;1.80;1.70;;;17.60;99.90;;;;;;6273977;22;20158;-58
2021/08/24 08:32:10;;;;;;;1.70;1.60;;;17.70;99.90;;;;;;6274331;22;20157;-59
2021/08/24 08:34:37;;;;;;;1.60;1.50;;;17.80;99.90;;;;;;6274400;22;20146;-58
2021/08/24 08:37:04;;;;;;;1.60;1.50;;;18.10;99.90;;;;;;6274478;22;20508;-58
2021/08/24 08:39:29;;;;;;;1.60;1.50;;;18.10;99.90;;;;;;6273962;22;20260;-57
2021/08/24 08:42:05;;;;;;;1.60;1.50;;;18.30;99.90;;;;;;6274499;22;20181;-53
2021/08/24 08:45:17;;;;;;;1.80;1.70;;;18.80;99.90;;;;;;6274767;22;20498;-56
2021/08/24 08:48:04;;;;;;;1.50;1.40;;;19.40;99.90;;;;;;6150955;23;20153;-59
2021/08/24 08:50:51;;;;;;;1.63;1.30;;;20.30;99.90;;;;;;6150393;23;20160;-57
2021/08/24 08:53:22;;;;;;;1.40;1.30;;;20.70;99.90;;;;;;6151030;23;20168;-58
2021/08/24 08:56:13;;;;;;;2.05;1.50;;;20.80;99.90;;;;;;6150822;23;20709;-57
2021/08/24 08:59:45;;;;;;;1.55;1.45;;;20.00;99.90;;;;;;6150576;23;20484;-57
2021/08/24 09:02:42;;;;;;;1.87;1.77;;;19.40;99.90;;;;;;6060330;23;20165;-59
2021/08/24 09:05:08;;;;;;;1.70;1.60;;;19.10;99.90;;;;;;6091970;23;20158;-56
2021/08/24 09:07:44;;;;;;;1.80;1.50;;;19.20;99.90;;;;;;6068008;23;20158;-59
2021/08/24 09:10:41;;;;;;;1.50;1.40;;;19.30;99.90;;;;;;6091894;23;20165;-59
2021/08/24 09:13:20;;;;;;;1.90;1.80;;;19.50;99.90;;;;;;6092207;23;20146;-58
2021/08/24 09:15:52;;;;;;;1.83;1.60;;;19.70;99.90;;;;;;6091804;23;20193;-59
2021/08/24 09:18:28;;;;;;;1.70;1.50;;;19.50;99.90;;;;;;6092248;23;20142;-59
2021/08/24 09:21:03;;;;;;;1.50;1.40;;;19.50;99.90;;;;;;6107000;23;20258;-59
2021/08/24 09:23:28;;;;;;;1.70;1.60;;;19.70;99.90;;;;;;6180334;23;20571;-57
2021/08/24 09:26:03;;;;;;;2.30;1.97;;;19.50;99.90;;;;;;6180111;23;20173;-58
2021/08/24 09:28:31;;;;;;;2.63;1.60;;;19.60;99.90;;;;;;6179695;23;20227;-57
2021/08/24 09:30:57;;;;;;;2.20;2.00;;;19.90;99.90;;;;;;6180267;23;20155;-54
2021/08/24 09:33:25;;;;;;;2.00;1.90;;;20.10;99.90;;;;;;6179924;23;20164;-59
2021/08/24 09:35:50;;;;;;;1.88;1.70;;;20.20;99.90;;;;;;6234885;22;20184;-59
2021/08/24 09:38:16;;;;;;;2.67;1.90;;;20.20;99.90;;;;;;6273771;22;20229;-59
2021/08/24 09:40:51;;;;;;;2.00;1.90;;;19.90;99.90;;;;;;6273736;22;20178;-58
2021/08/24 09:43:32;;;;;;;2.30;2.10;;;19.60;99.90;;;;;;6273514;22;20153;-58
2021/08/24 09:46:06;;;;;;;3.00;2.33;;;19.30;99.90;;;;;;6273801;22;20253;-58
2021/08/24 09:48:46;;;;;;;2.40;2.10;;;18.90;99.90;;;;;;6273410;22;20210;-59
2021/08/24 09:51:49;;;;;;;2.33;2.23;;;18.70;99.90;;;;;;6273919;22;20477;-59
2021/08/24 09:54:20;;;;;;;2.47;2.27;;;18.70;99.90;;;;;;6273677;22;20153;-58
2021/08/24 09:56:58;;;;;;;2.13;2.03;;;18.70;99.90;;;;;;6273672;22;20249;-52
2021/08/24 09:59:33;;;;;;;2.10;2.00;;;18.50;99.90;;;;;;6273146;22;20604;-57
2021/08/24 10:01:59;;;;;;;2.10;2.00;;;18.40;99.90;;;;;;6274258;22;20641;-58
2021/08/24 10:04:25;;;;;;;2.13;1.90;;;18.50;99.90;;;;;;6274018;22;20150;-55
2021/08/24 10:07:00;;;;;;;2.93;2.17;;;18.40;99.90;;;;;;6273640;22;20193;-57
2021/08/24 10:09:33;;;;;;;2.70;2.07;;;18.30;99.90;;;;;;6273225;22;20149;-57
2021/08/24 10:12:19;;;;;;;2.57;2.37;;;18.30;99.90;;;;;;6273609;22;20196;-59
2021/08/24 10:14:45;;;;;;;2.43;2.23;;;18.40;99.90;;;;;;6273931;22;20161;-59
2021/08/24 10:17:33;;;;;;;2.47;2.27;;;18.50;99.90;;;;;;6273242;22;20178;-58
2021/08/24 10:22:34;;;;;;;2.40;2.20;;;19.10;99.90;;;;;;6242986;23;20510;-57
2021/08/24 10:25:08;;;;;;;2.00;1.90;;;19.00;99.90;;;;;;6242347;23;20563;-58
2021/08/24 10:27:42;;;;;;;1.87;1.77;;;18.90;99.90;;;;;;6242527;23;20529;-60
2021/08/24 10:30:14;;;;;;;2.47;2.00;;;19.10;99.90;;;;;;6238607;23;20139;-60
2021/08/24 10:32:52;;;;;;;1.50;1.40;;;19.10;99.90;;;;;;6212104;23;20502;-60
2021/08/24 10:35:29;;;;;;;1.10;1.10;;;19.20;99.90;;;;;;6185448;23;20144;-60
2021/08/24 10:37:56;;;;;;;1.23;1.13;;;19.30;99.90;;;;;;6212170;23;20499;-58
2021/08/24 10:40:37;;;;;;;1.60;1.50;;;19.30;99.90;;;;;;6210807;23;20218;-59
2021/08/24 10:43:09;;;;;;;1.30;1.20;;;19.50;99.90;;;;;;6212157;23;20208;-60
2021/08/24 10:45:41;;;;;;;1.47;1.37;;;19.40;99.90;;;;;;6213349;23;20221;-57
2021/08/24 10:48:19;;;;;;;1.10;1.10;;;19.40;99.90;;;;;;6213903;23;20171;-60
2021/08/24 10:51:11;;;;;;;1.20;1.20;;;19.50;99.90;;;;;;6212973;23;20178;-60
2021/08/24 10:53:46;;;;;;;1.40;1.30;;;19.50;99.90;;;;;;6214033;23;20136;-58
2021/08/24 10:56:34;;;;;;;1.20;1.20;;;19.60;99.90;;;;;;6213740;23;20625;-59
2021/08/24 10:59:24;;;;;;;1.93;1.30;;;19.70;99.90;;;;;;6212927;23;20136;-60
2021/08/24 11:01:57;;;;;;;1.50;1.40;;;19.70;99.90;;;;;;6213717;23;20187;-59
2021/08/24 11:04:31;;;;;;;1.60;1.50;;;19.70;99.90;;;;;;6213744;23;20311;-60
2021/08/24 11:07:18;;;;;;;1.50;1.40;;;19.80;99.90;;;;;;6213791;23;20207;-57
2021/08/24 11:09:51;;;;;;;1.63;1.53;;;19.90;99.90;;;;;;6212861;23;20605;-59
2021/08/24 11:12:47;;;;;;;1.53;1.43;;;19.80;99.90;;;;;;6213487;23;20645;-59
2021/08/24 11:15:21;;;;;;;1.60;1.50;;;19.90;99.90;;;;;;6213678;23;20595;-54
2021/08/24 11:18:11;;;;;;;1.53;1.43;;;19.90;99.90;;;;;;6213629;23;20142;-61
2021/08/24 11:20:54;;;;;;;1.90;1.60;;;19.80;99.90;;;;;;6219066;23;20188;-61
2021/08/24 11:23:51;;;;;;;0.97;0.97;;;19.80;99.90;;;;;;6243696;23;20130;-60
2021/08/24 11:26:34;;;;;;;1.40;1.30;;;19.50;99.90;;;;;;6214153;23;20770;-54
2021/08/24 11:29:09;;;;;;;1.50;1.40;;;19.30;99.90;;;;;;6242926;23;20206;-60
2021/08/24 11:31:42;;;;;;;1.43;1.33;;;19.40;99.90;;;;;;6243828;22;20610;-59
2021/08/24 11:34:16;;;;;;;1.33;1.23;;;19.50;99.90;;;;;;6243600;23;20131;-57
2021/08/24 11:36:51;;;;;;;1.40;1.30;;;19.50;99.90;;;;;;6244209;23;20544;-59
2021/08/24 11:39:35;;;;;;;1.43;1.10;;;19.50;99.90;;;;;;6242775;23;20162;-60
2021/08/24 11:42:02;;;;;;;1.40;1.30;;;19.60;99.90;;;;;;6244069;22;20201;-61
2021/08/24 11:44:37;;;;;;;1.47;1.37;;;19.50;99.90;;;;;;6243591;23;20157;-59
2021/08/24 11:47:13;;;;;;;1.40;1.30;;;19.50;99.90;;;;;;6243788;23;20130;-60
2021/08/24 11:49:49;;;;;;;1.60;1.50;;;19.50;99.90;;;;;;6242640;23;20586;-59
2021/08/24 11:52:46;;;;;;;1.40;1.30;;;19.60;99.90;;;;;;6243542;22;20509;-58
2021/08/24 11:55:37;;;;;;;2.87;1.50;;;19.70;99.90;;;;;;6243509;23;20139;-57
2021/08/24 11:58:07;;;;;;;1.40;1.30;;;19.80;99.90;;;;;;6243637;23;20733;-59
2021/08/24 12:00:33;;;;;;;1.47;1.37;;;19.90;99.90;;;;;;6241878;22;20191;-57
2021/08/24 12:03:02;;;;;;;1.37;1.10;;;20.00;99.90;;;;;;6243194;23;20622;-59
2021/08/24 12:05:34;;;;;;;1.50;1.40;;;20.00;99.90;;;;;;6243254;23;20143;-60
2021/08/24 12:08:04;;;;;;;2.33;1.60;;;20.10;99.90;;;;;;6243962;23;20451;-58
2021/08/24 12:10:51;;;;;;;1.70;1.60;;;20.00;99.90;;;;;;6242246;22;20194;-56
2021/08/24 12:13:35;;;;;;;1.63;1.53;;;19.90;99.90;;;;;;6243638;23;20230;-61
2021/08/24 12:16:21;;;;;;;1.60;1.50;;;19.90;99.90;;;;;;6243370;23;20151;-59
2021/08/24 12:19:12;;;;;;;1.73;1.63;;;20.00;99.90;;;;;;6242613;23;20135;-60
2021/08/24 12:21:37;;;;;;;1.30;1.20;;;20.10;99.90;;;;;;6243134;22;20190;-60
2021/08/24 12:24:24;;;;;;;1.50;1.40;;;20.10;99.90;;;;;;6243399;23;20139;-61
2021/08/24 12:26:56;;;;;;;1.90;1.50;;;19.90;99.90;;;;;;6243260;23;20225;-55
2021/08/24 12:29:36;;;;;;;1.50;1.40;;;19.90;99.90;;;;;;6242488;23;20151;-60
2021/08/24 12:32:20;;;;;;;1.00;1.00;;;19.90;99.90;;;;;;6243275;22;20201;-60
2021/08/24 12:34:51;;;;;;;1.20;1.20;;;19.90;99.90;;;;;;6243275;23;20552;-61
2021/08/24 12:37:20;;;;;;;1.50;1.40;;;19.90;99.90;;;;;;6243192;23;20139;-59
2021/08/24 12:39:53;;;;;;;2.00;1.50;;;20.00;99.90;;;;;;6242227;23;20170;-60
2021/08/24 12:42:27;;;;;;;1.37;1.27;;;19.80;99.90;;;;;;6242940;22;20194;-57
2021/08/24 12:45:02;;;;;;;1.17;0.93;;;19.80;99.90;;;;;;6243548;23;20532;-59
2021/08/24 12:47:40;;;;;;;1.70;1.40;;;19.70;99.90;;;;;;6243008;23;20168;-60
2021/08/24 12:50:09;;;;;;;1.30;1.07;;;19.60;99.90;;;;;;6242047;22;20269;-61
2021/08/24 12:52:40;;;;;;;0.80;0.80;;;19.70;99.90;;;;;;6242502;23;20281;-57
2021/08/24 12:55:26;;;;;;;0.70;0.70;;;19.60;99.90;;;;;;6243135;23;20154;-59
2021/08/24 12:58:13;;;;;;;0.70;0.70;;;19.60;99.90;;;;;;6216431;23;20154;-60
2021/08/24 13:00:40;;;;;;;0.73;0.73;;;19.60;99.90;;;;;;6241970;22;20183;-60
2021/08/24 13:03:20;;;;;;;1.53;1.10;;;19.60;99.90;;;;;;6243161;23;20196;-57
2021/08/24 13:05:49;;;;;;;1.27;0.93;;;19.40;99.90;;;;;;6243324;23;20154;-60
2021/08/24 13:08:34;;;;;;;1.00;0.90;;;19.40;99.90;;;;;;6242442;23;20154;-60
2021/08/24 13:11:23;;;;;;;0.90;0.90;;;19.30;99.90;;;;;;6242207;22;20266;-60
2021/08/24 13:13:53;;;;;;;1.23;1.13;;;19.30;99.90;;;;;;6242573;23;20157;-58